Time;durP1;ratioP1;P1;durP2;ratioP2;P2;SDS_P1;SDS_P2;PMS_P1;PMS_P2;Temp;Humidity;BMP_temperature;BMP_pressure;BME280_temperature;BME280_humidity;BME280_pressure;Samples;Min_cycle;Max_cycle;Signal;HPM_P1;HPM_P2
2021/07/27 00:01:11;;;;;;;2.37;1.70;;;29.30;99.90;;;;;;6251666;23;20610;-89
2021/07/27 00:03:43;;;;;;;1.83;1.30;;;29.80;99.90;;;;;;6273154;22;20164;-90
2021/07/27 00:06:14;;;;;;;2.10;1.53;;;30.20;99.90;;;;;;6273763;22;20242;-89
2021/07/27 00:08:47;;;;;;;1.63;1.43;;;30.20;99.90;;;;;;6269413;22;20179;-90
2021/07/27 00:11:18;;;;;;;2.37;1.50;;;30.40;99.90;;;;;;6256135;23;20230;-91
2021/07/27 00:13:53;;;;;;;2.27;2.03;;;30.60;99.90;;;;;;6257907;23;20190;-91
2021/07/27 00:16:28;;;;;;;1.60;1.50;;;30.50;99.90;;;;;;6253364;23;20232;-92
2021/07/27 00:19:00;;;;;;;2.93;1.80;;;30.60;99.90;;;;;;6249418;23;20199;-91
2021/07/27 00:21:31;;;;;;;2.27;2.07;;;30.90;99.90;;;;;;6246610;23;20175;-89
2021/07/27 00:24:04;;;;;;;7.73;2.10;;;31.00;99.90;;;;;;6248991;23;20176;-91
2021/07/27 00:26:35;;;;;;;2.93;1.90;;;31.00;99.90;;;;;;6222625;23;20180;-90
2021/07/27 00:29:06;;;;;;;2.40;2.00;;;31.00;99.90;;;;;;6248102;23;20175;-91
2021/07/27 00:31:36;;;;;;;3.00;2.63;;;31.00;99.40;;;;;;6247273;23;20607;-91
2021/07/27 00:34:07;;;;;;;2.57;2.20;;;30.90;99.90;;;;;;6248032;23;20210;-91
2021/07/27 00:36:38;;;;;;;2.50;2.30;;;30.80;99.40;;;;;;6247740;23;20245;-91
2021/07/27 00:39:12;;;;;;;2.50;2.30;;;30.70;99.90;;;;;;6249374;23;20215;-90
2021/07/27 00:41:42;;;;;;;3.17;2.60;;;30.80;99.30;;;;;;6247743;23;20176;-91
2021/07/27 00:44:13;;;;;;;3.10;2.50;;;30.80;99.50;;;;;;6248632;23;20214;-92
2021/07/27 00:46:45;;;;;;;2.70;2.50;;;30.80;99.10;;;;;;6248884;23;20521;-91
2021/07/27 00:49:16;;;;;;;3.00;2.42;;;30.60;98.80;;;;;;6248532;23;20175;-91
2021/07/27 00:51:47;;;;;;;3.90;3.00;;;30.60;98.90;;;;;;6223515;23;20192;-91
2021/07/27 00:54:20;;;;;;;3.60;3.30;;;30.60;98.60;;;;;;6248487;23;20180;-91
2021/07/27 00:56:51;;;;;;;2.63;2.40;;;30.60;98.30;;;;;;6248707;23;20222;-91
2021/07/27 00:59:23;;;;;;;3.07;2.80;;;30.70;98.40;;;;;;6248684;23;20199;-92
2021/07/27 01:01:54;;;;;;;3.87;3.47;;;30.30;98.50;;;;;;6248248;23;20691;-92
2021/07/27 01:04:26;;;;;;;4.33;3.00;;;30.20;98.50;;;;;;6251045;23;20183;-90
2021/07/27 01:06:59;;;;;;;3.23;2.93;;;30.10;97.90;;;;;;6251841;23;20171;-91
2021/07/27 01:09:35;;;;;;;3.43;2.73;;;30.00;98.00;;;;;;6249568;23;20233;-92
2021/07/27 01:12:06;;;;;;;2.60;2.40;;;30.20;98.00;;;;;;6246630;23;20202;-91
2021/07/27 01:14:37;;;;;;;4.00;2.73;;;30.50;98.40;;;;;;6247963;23;20198;-92
2021/07/27 01:17:09;;;;;;;3.30;3.00;;;30.80;98.60;;;;;;6247885;23;20176;-91
2021/07/27 01:19:50;;;;;;;2.53;2.33;;;31.20;98.10;;;;;;6247495;23;20522;-92
2021/07/27 01:39:26;;;;;;;2.47;2.20;;;31.70;96.10;;;;;;6248601;23;20192;-90
2021/07/27 01:42:14;;;;;;;2.07;1.83;;;31.50;96.10;;;;;;6246453;23;20175;-91
2021/07/27 01:44:46;;;;;;;1.70;1.60;;;31.40;97.20;;;;;;6248539;23;20249;-91
2021/07/27 01:47:18;;;;;;;3.40;1.90;;;31.50;97.40;;;;;;6248595;23;20179;-91
2021/07/27 01:49:49;;;;;;;1.70;1.60;;;31.20;97.60;;;;;;6247627;23;20233;-91
2021/07/27 01:52:23;;;;;;;2.23;1.60;;;31.10;97.80;;;;;;6247607;23;20176;-91
2021/07/27 01:55:07;;;;;;;2.30;1.50;;;30.60;98.10;;;;;;6248531;23;20744;-91
2021/07/27 01:57:38;;;;;;;3.83;1.57;;;30.80;98.20;;;;;;6251121;23;20191;-92
2021/07/27 02:00:12;;;;;;;6.60;1.77;;;30.90;98.10;;;;;;6248940;23;20214;-92
2021/07/27 02:02:43;;;;;;;2.93;1.50;;;30.80;98.10;;;;;;6249297;23;20549;-91
2021/07/27 02:05:15;;;;;;;1.80;1.70;;;30.50;98.10;;;;;;6222782;23;20168;-91
2021/07/27 02:07:58;;;;;;;2.50;1.50;;;30.60;97.80;;;;;;6249351;23;20171;-91
2021/07/27 02:10:32;;;;;;;2.13;1.93;;;30.40;97.60;;;;;;6222847;23;20186;-92
2021/07/27 02:13:12;;;;;;;3.17;1.70;;;29.90;98.00;;;;;;6247932;23;20641;-92
2021/07/27 02:15:44;;;;;;;2.43;1.97;;;28.90;98.70;;;;;;6248975;23;20258;-92
2021/07/27 02:18:19;;;;;;;2.27;1.70;;;28.20;99.60;;;;;;6252682;23;20190;-92
2021/07/27 02:20:51;;;;;;;1.90;1.70;;;27.50;99.90;;;;;;6249889;23;20172;-92
2021/07/27 02:23:22;;;;;;;2.47;1.80;;;26.90;99.90;;;;;;6249149;23;20231;-92
2021/07/27 02:25:55;;;;;;;1.90;1.70;;;26.60;99.90;;;;;;6249307;23;20176;-91
2021/07/27 02:28:27;;;;;;;2.90;1.70;;;26.20;99.90;;;;;;6251486;23;20165;-92
2021/07/27 02:31:01;;;;;;;3.20;1.73;;;26.00;99.90;;;;;;6271097;22;20187;-92
2021/07/27 02:33:35;;;;;;;2.23;1.63;;;25.90;99.90;;;;;;6271946;22;20179;-93
2021/07/27 02:36:07;;;;;;;3.40;1.73;;;25.70;99.90;;;;;;6269489;22;20155;-96
2021/07/27 02:38:38;;;;;;;1.97;1.70;;;25.60;99.90;;;;;;6249640;23;20195;-91
2021/07/27 02:41:12;;;;;;;2.00;1.80;;;25.40;99.90;;;;;;6248749;23;20187;-91
2021/07/27 02:43:42;;;;;;;2.50;1.83;;;25.20;99.90;;;;;;6246718;23;20259;-90
2021/07/27 02:46:14;;;;;;;2.47;1.70;;;25.10;99.90;;;;;;6248555;23;20183;-90
2021/07/27 02:48:45;;;;;;;4.50;1.63;;;24.90;99.90;;;;;;6248233;23;20179;-90
2021/07/27 02:51:16;;;;;;;2.83;1.80;;;24.80;99.90;;;;;;6249040;23;20509;-90
2021/07/27 02:53:47;;;;;;;2.97;1.90;;;24.70;99.90;;;;;;6246994;23;20196;-91
2021/07/27 02:56:20;;;;;;;2.50;1.60;;;24.60;99.90;;;;;;6248935;23;20176;-91
2021/07/27 02:58:52;;;;;;;2.10;1.70;;;24.40;99.90;;;;;;6251088;23;20191;-91
2021/07/27 03:01:23;;;;;;;1.50;1.40;;;24.40;99.90;;;;;;6250963;23;20176;-93
2021/07/27 03:03:54;;;;;;;1.87;1.60;;;24.30;99.90;;;;;;6225388;23;20183;-91
2021/07/27 03:06:25;;;;;;;3.00;1.33;;;24.10;99.90;;;;;;6252212;23;20626;-91
2021/07/27 03:09:15;;;;;;;2.03;1.40;;;24.00;99.90;;;;;;6253749;23;20182;-91
2021/07/27 03:11:48;;;;;;;1.63;1.30;;;23.90;99.90;;;;;;6225167;23;20183;-90
2021/07/27 03:14:22;;;;;;;1.80;1.40;;;23.70;99.90;;;;;;6253864;23;20194;-91
2021/07/27 03:16:54;;;;;;;2.13;1.40;;;23.60;99.90;;;;;;6254485;23;20256;-91
2021/07/27 03:19:25;;;;;;;1.60;1.33;;;23.50;99.90;;;;;;6254217;23;20217;-91
2021/07/27 03:21:57;;;;;;;4.70;1.20;;;23.40;99.90;;;;;;6241629;22;20182;-91
2021/07/27 03:24:28;;;;;;;1.90;1.50;;;23.20;99.90;;;;;;6270038;22;20179;-91
2021/07/27 03:27:01;;;;;;;1.77;1.30;;;23.10;99.90;;;;;;6270001;22;20187;-91
2021/07/27 03:29:32;;;;;;;2.60;1.50;;;23.00;99.90;;;;;;6270691;22;20167;-88
2021/07/27 03:32:03;;;;;;;2.23;1.10;;;22.90;99.90;;;;;;6270544;22;20162;-89
2021/07/27 03:34:35;;;;;;;1.57;1.30;;;22.80;99.90;;;;;;6269499;22;20184;-90
2021/07/27 03:37:06;;;;;;;1.83;1.03;;;22.70;99.90;;;;;;6258897;23;20186;-91
2021/07/27 03:39:40;;;;;;;2.27;1.33;;;22.60;99.90;;;;;;6257855;23;20271;-90
2021/07/27 03:42:13;;;;;;;1.37;1.10;;;22.50;99.90;;;;;;6248354;23;20183;-91
2021/07/27 03:44:44;;;;;;;1.33;0.97;;;22.50;99.90;;;;;;6247084;23;20211;-91
2021/07/27 03:47:15;;;;;;;3.43;0.97;;;22.40;99.90;;;;;;6246970;23;20227;-91
2021/07/27 03:49:45;;;;;;;2.57;1.03;;;22.20;99.90;;;;;;6247328;23;20191;-91
2021/07/27 03:52:16;;;;;;;1.50;1.20;;;22.10;99.90;;;;;;6246204;23;20202;-91
2021/07/27 03:54:47;;;;;;;3.67;1.13;;;21.90;99.90;;;;;;6248141;23;20287;-91
2021/07/27 03:57:20;;;;;;;2.20;1.03;;;21.80;99.90;;;;;;6248261;23;20187;-91
2021/07/27 03:59:51;;;;;;;1.93;0.90;;;21.70;99.90;;;;;;6247764;23;20286;-92
2021/07/27 04:02:23;;;;;;;2.30;0.80;;;21.60;99.90;;;;;;6247447;23;20594;-91
2021/07/27 04:04:54;;;;;;;2.63;0.93;;;21.40;99.90;;;;;;6247833;23;20172;-90
2021/07/27 04:07:24;;;;;;;1.83;0.70;;;21.30;99.90;;;;;;6248945;23;20176;-91
2021/07/27 04:09:56;;;;;;;1.80;1.10;;;21.30;99.90;;;;;;6248956;23;20171;-91
2021/07/27 04:12:29;;;;;;;1.23;0.90;;;21.10;99.90;;;;;;6247154;23;20614;-91
2021/07/27 04:15:00;;;;;;;3.03;0.80;;;21.00;99.90;;;;;;6248470;23;20168;-91
2021/07/27 04:17:31;;;;;;;0.87;0.50;;;20.90;99.90;;;;;;6247906;23;20628;-91
2021/07/27 04:20:02;;;;;;;1.00;0.77;;;20.80;99.90;;;;;;6248861;23;20606;-94
2021/07/27 04:22:44;;;;;;;1.40;0.67;;;20.80;99.90;;;;;;6227653;22;20535;-95
2021/07/27 04:25:19;;;;;;;1.03;0.70;;;20.60;99.90;;;;;;6257342;23;20172;-90
2021/07/27 04:27:54;;;;;;;1.90;0.80;;;20.60;99.90;;;;;;6256530;23;20176;-89
2021/07/27 04:30:26;;;;;;;2.43;0.77;;;20.50;99.90;;;;;;6255470;23;20175;-88
2021/07/27 04:32:57;;;;;;;1.67;0.73;;;20.40;99.90;;;;;;6254890;23;20187;-88
2021/07/27 04:35:33;;;;;;;1.63;0.80;;;20.40;99.90;;;;;;6256692;23;20167;-88
2021/07/27 04:38:06;;;;;;;3.03;1.10;;;20.30;99.90;;;;;;6256561;23;20175;-89
2021/07/27 04:40:41;;;;;;;1.50;0.73;;;20.20;99.90;;;;;;6257000;23;20203;-90
2021/07/27 04:43:19;;;;;;;1.87;0.80;;;20.10;99.90;;;;;;6256423;23;20168;-88
2021/07/27 04:45:51;;;;;;;4.00;1.00;;;20.00;99.90;;;;;;6257713;23;20176;-89
2021/07/27 04:48:23;;;;;;;2.60;0.87;;;20.00;99.90;;;;;;6253051;23;20190;-89
2021/07/27 04:50:58;;;;;;;2.57;0.90;;;20.00;99.90;;;;;;6259169;23;20168;-89
2021/07/27 04:53:34;;;;;;;1.43;0.80;;;19.90;99.90;;;;;;6259196;23;20160;-89
2021/07/27 04:56:08;;;;;;;2.83;0.70;;;19.90;99.90;;;;;;6259756;23;20171;-90
2021/07/27 04:58:56;;;;;;;1.83;0.60;;;19.80;99.90;;;;;;6272886;22;20179;-88
2021/07/27 05:01:38;;;;;;;1.47;0.87;;;19.80;99.90;;;;;;6272108;22;20184;-90
2021/07/27 05:04:15;;;;;;;3.10;1.23;;;19.70;99.90;;;;;;6266789;22;20636;-88
2021/07/27 05:06:51;;;;;;;4.10;1.50;;;19.70;99.90;;;;;;6235184;23;20226;-89
2021/07/27 05:09:23;;;;;;;3.43;1.17;;;19.60;99.90;;;;;;6260445;23;20171;-89
2021/07/27 05:11:55;;;;;;;4.03;0.80;;;19.50;99.90;;;;;;6256188;22;20184;-90
2021/07/27 05:14:39;;;;;;;1.83;0.70;;;19.50;99.90;;;;;;6253809;23;20163;-89
2021/07/27 05:17:13;;;;;;;2.97;1.00;;;19.40;99.90;;;;;;6254048;23;20197;-90
2021/07/27 05:19:54;;;;;;;1.27;0.87;;;19.30;99.90;;;;;;6255623;23;20190;-88
2021/07/27 05:22:25;;;;;;;3.27;0.67;;;19.30;99.90;;;;;;6256304;23;20191;-88
2021/07/27 05:25:07;;;;;;;1.33;0.83;;;19.30;99.90;;;;;;6233809;23;20175;-88
2021/07/27 05:27:39;;;;;;;2.27;0.73;;;19.20;99.90;;;;;;6261055;23;20621;-89
2021/07/27 05:30:18;;;;;;;1.90;0.60;;;19.20;99.90;;;;;;6261545;23;20191;-89
2021/07/27 05:32:52;;;;;;;2.10;0.80;;;19.10;99.90;;;;;;6260324;23;20183;-88
2021/07/27 05:35:27;;;;;;;0.93;0.67;;;19.10;99.90;;;;;;6252459;23;20183;-88
2021/07/27 05:38:00;;;;;;;2.63;0.80;;;19.00;99.90;;;;;;6254702;23;20182;-89
2021/07/27 05:40:34;;;;;;;1.30;0.80;;;19.00;99.90;;;;;;6256006;23;20191;-89
2021/07/27 05:43:05;;;;;;;4.53;0.90;;;19.00;99.90;;;;;;6253802;23;20170;-88
2021/07/27 05:45:40;;;;;;;1.77;0.80;;;18.90;99.90;;;;;;6252774;23;20194;-88
2021/07/27 05:48:13;;;;;;;1.43;0.60;;;18.90;99.90;;;;;;6254338;23;20167;-89
2021/07/27 05:50:52;;;;;;;0.83;0.70;;;18.80;99.90;;;;;;6252770;23;20202;-89
2021/07/27 05:53:26;;;;;;;2.03;0.83;;;18.80;99.90;;;;;;6251035;23;20179;-88
2021/07/27 05:56:07;;;;;;;0.93;0.60;;;18.80;99.90;;;;;;6252577;23;20195;-89
2021/07/27 05:58:38;;;;;;;1.00;0.60;;;18.70;99.90;;;;;;6247226;23;20190;-89
2021/07/27 06:01:11;;;;;;;3.60;0.80;;;18.70;99.90;;;;;;6247565;23;20242;-88
2021/07/27 06:03:42;;;;;;;1.73;0.70;;;18.60;99.90;;;;;;6245482;23;20175;-88
2021/07/27 06:06:13;;;;;;;1.50;0.80;;;18.60;99.90;;;;;;6247561;23;20494;-88
2021/07/27 06:08:45;;;;;;;2.30;0.63;;;18.60;99.90;;;;;;6247066;23;20204;-88
2021/07/27 06:11:16;;;;;;;2.83;0.77;;;18.50;99.90;;;;;;6247058;23;20627;-89
2021/07/27 06:13:47;;;;;;;2.00;0.73;;;18.40;99.90;;;;;;6246408;23;20200;-88
2021/07/27 06:16:20;;;;;;;1.50;0.70;;;18.40;99.90;;;;;;6246492;23;20191;-89
2021/07/27 06:18:51;;;;;;;2.03;0.77;;;18.40;99.90;;;;;;6247668;23;20238;-89
2021/07/27 06:21:22;;;;;;;1.73;0.47;;;18.30;99.90;;;;;;6246633;23;20199;-90
2021/07/27 06:23:55;;;;;;;1.40;0.70;;;18.30;99.90;;;;;;6247287;23;20168;-88
2021/07/27 06:26:27;;;;;;;1.67;0.60;;;18.30;99.90;;;;;;6220515;23;20174;-88
2021/07/27 06:29:00;;;;;;;1.40;0.73;;;18.30;99.90;;;;;;6246788;23;20258;-88
2021/07/27 06:31:35;;;;;;;3.50;0.90;;;18.30;99.90;;;;;;6244966;23;20246;-86
2021/07/27 06:34:07;;;;;;;0.70;0.67;;;18.30;99.90;;;;;;6247182;23;20262;-88
2021/07/27 06:36:38;;;;;;;1.20;0.80;;;18.30;99.90;;;;;;6246503;23;20246;-88
2021/07/27 06:39:10;;;;;;;2.20;0.80;;;18.30;99.90;;;;;;6246182;23;20202;-88
2021/07/27 06:41:41;;;;;;;3.13;0.90;;;18.30;99.90;;;;;;6244948;23;20199;-87
2021/07/27 06:44:11;;;;;;;1.70;0.97;;;18.20;99.90;;;;;;6245321;23;20218;-87
2021/07/27 06:46:44;;;;;;;2.70;1.03;;;18.20;99.90;;;;;;6247549;23;20206;-87
2021/07/27 06:49:16;;;;;;;1.80;0.73;;;18.20;99.90;;;;;;6247574;23;20214;-87
2021/07/27 06:51:47;;;;;;;1.27;0.60;;;18.10;99.90;;;;;;6219049;23;20176;-87
2021/07/27 06:54:18;;;;;;;3.57;0.90;;;18.10;99.90;;;;;;6246464;23;20180;-87
2021/07/27 06:56:49;;;;;;;2.33;0.87;;;18.10;99.90;;;;;;6247313;23;20168;-87
2021/07/27 06:59:22;;;;;;;1.23;0.67;;;18.00;99.90;;;;;;6246371;23;20445;-88
2021/07/27 07:02:07;;;;;;;1.33;0.67;;;18.00;99.90;;;;;;6245208;23;20738;-87
2021/07/27 07:04:38;;;;;;;1.27;0.63;;;18.00;99.90;;;;;;6245998;23;20562;-88
2021/07/27 07:07:12;;;;;;;1.87;0.77;;;18.00;99.90;;;;;;6246295;23;20171;-88
2021/07/27 07:09:44;;;;;;;1.37;0.70;;;18.00;99.90;;;;;;6245986;23;20167;-87
2021/07/27 07:12:15;;;;;;;1.23;0.70;;;17.90;99.90;;;;;;6245534;23;20184;-87
2021/07/27 07:14:48;;;;;;;1.37;0.60;;;17.90;99.90;;;;;;6246038;23;20237;-87
2021/07/27 07:17:20;;;;;;;0.93;0.57;;;17.90;99.90;;;;;;6221001;23;20167;-87
2021/07/27 07:19:52;;;;;;;1.90;0.80;;;17.90;99.90;;;;;;6220394;23;20196;-87
2021/07/27 07:22:24;;;;;;;1.27;0.70;;;17.90;99.90;;;;;;6260582;22;20263;-87
2021/07/27 07:24:55;;;;;;;2.47;0.70;;;17.90;99.90;;;;;;6271487;22;20170;-88
2021/07/27 07:27:26;;;;;;;1.97;0.77;;;17.90;99.90;;;;;;6271918;22;20255;-87
2021/07/27 07:29:58;;;;;;;2.17;1.17;;;17.90;99.90;;;;;;6258787;23;20203;-86
2021/07/27 07:32:31;;;;;;;3.50;0.70;;;17.90;99.90;;;;;;6248190;23;20237;-88
2021/07/27 07:35:04;;;;;;;0.93;0.80;;;17.90;99.90;;;;;;6248517;23;20190;-88
2021/07/27 07:37:36;;;;;;;1.07;0.60;;;17.80;99.90;;;;;;6224325;23;20168;-87
2021/07/27 07:40:08;;;;;;;2.00;0.70;;;17.80;99.90;;;;;;6249063;23;20672;-88
2021/07/27 07:42:39;;;;;;;1.50;0.80;;;17.80;99.90;;;;;;6247575;23;20203;-87
2021/07/27 07:45:10;;;;;;;2.17;0.87;;;17.80;99.90;;;;;;6248211;23;20531;-87
2021/07/27 07:47:44;;;;;;;1.83;0.70;;;17.70;99.90;;;;;;6248429;23;20183;-88
2021/07/27 07:50:15;;;;;;;1.47;0.70;;;17.70;99.90;;;;;;6247816;23;20222;-88
2021/07/27 07:52:46;;;;;;;1.63;0.80;;;17.70;99.90;;;;;;6220836;23;20175;-88
2021/07/27 07:55:18;;;;;;;0.93;0.60;;;17.70;99.90;;;;;;6221699;23;20588;-88
2021/07/27 07:57:49;;;;;;;1.57;0.70;;;17.60;99.90;;;;;;6248883;23;20180;-88
2021/07/27 08:00:22;;;;;;;1.83;0.90;;;17.60;99.90;;;;;;6248070;23;20210;-88
2021/07/27 08:02:56;;;;;;;2.23;0.90;;;17.60;99.90;;;;;;6247273;23;20669;-88
2021/07/27 08:05:28;;;;;;;1.27;0.50;;;17.70;99.90;;;;;;6222343;23;20172;-87
2021/07/27 08:07:58;;;;;;;1.70;0.80;;;17.60;99.90;;;;;;6249222;23;20172;-88
2021/07/27 08:10:29;;;;;;;2.40;0.90;;;17.60;99.90;;;;;;6248166;23;20176;-88
2021/07/27 08:13:00;;;;;;;1.40;0.70;;;17.60;99.90;;;;;;6247635;23;20173;-88
2021/07/27 08:15:31;;;;;;;1.50;0.60;;;17.60;99.90;;;;;;6249006;23;20164;-88
2021/07/27 08:18:04;;;;;;;2.57;0.87;;;17.60;99.90;;;;;;6248904;23;20168;-87
2021/07/27 08:20:35;;;;;;;1.60;0.80;;;17.60;99.90;;;;;;6249522;23;20226;-87
2021/07/27 08:23:06;;;;;;;1.13;0.60;;;17.50;99.90;;;;;;6248061;23;20219;-87
2021/07/27 08:25:37;;;;;;;2.63;0.70;;;17.50;99.90;;;;;;6248915;23;20615;-88
2021/07/27 08:28:09;;;;;;;2.10;0.83;;;17.40;99.90;;;;;;6224234;23;20255;-87
2021/07/27 08:30:40;;;;;;;2.07;0.60;;;17.40;99.90;;;;;;6250787;23;20187;-87
2021/07/27 08:33:13;;;;;;;2.30;0.57;;;17.40;99.90;;;;;;6250646;23;20226;-88
2021/07/27 08:35:44;;;;;;;4.63;1.00;;;17.40;99.90;;;;;;6252544;23;20271;-88
2021/07/27 08:38:15;;;;;;;1.13;0.60;;;17.40;99.90;;;;;;6253574;23;20168;-88
2021/07/27 08:40:49;;;;;;;0.57;0.57;;;17.40;99.90;;;;;;6252138;23;20183;-87
2021/07/27 08:43:20;;;;;;;0.77;0.43;;;17.40;99.90;;;;;;6253674;23;20191;-88
2021/07/27 08:45:52;;;;;;;2.00;0.80;;;17.30;99.90;;;;;;6255914;23;20186;-88
2021/07/27 08:48:26;;;;;;;1.80;0.50;;;17.30;99.90;;;;;;6265770;23;20235;-88
2021/07/27 08:50:58;;;;;;;1.57;0.57;;;17.30;99.90;;;;;;6271238;23;20190;-87
2021/07/27 08:53:30;;;;;;;1.40;0.63;;;17.20;99.90;;;;;;6264543;23;20234;-87
2021/07/27 08:56:02;;;;;;;1.10;0.43;;;17.20;99.90;;;;;;6256176;23;20183;-88
2021/07/27 08:58:33;;;;;;;1.10;0.80;;;17.10;99.90;;;;;;6254656;23;20172;-88
2021/07/27 09:01:04;;;;;;;1.00;0.57;;;17.00;99.90;;;;;;6249253;23;20176;-88
2021/07/27 09:03:48;;;;;;;3.67;0.60;;;17.00;99.90;;;;;;6246805;23;20291;-88
2021/07/27 09:06:24;;;;;;;2.10;0.50;;;17.00;99.90;;;;;;6224562;23;20164;-88
2021/07/27 09:09:05;;;;;;;3.23;0.50;;;16.90;99.90;;;;;;6248156;23;20187;-88
2021/07/27 09:11:46;;;;;;;0.60;0.53;;;17.00;99.90;;;;;;6247216;23;20168;-88
2021/07/27 09:14:18;;;;;;;1.53;0.67;;;16.90;99.90;;;;;;6247233;23;20182;-87
2021/07/27 09:16:50;;;;;;;1.80;0.50;;;16.90;99.90;;;;;;6247061;23;20250;-88
2021/07/27 09:19:23;;;;;;;1.57;0.60;;;16.80;99.90;;;;;;6247592;23;20218;-87
2021/07/27 09:22:05;;;;;;;1.87;0.63;;;16.80;99.90;;;;;;6246293;23;20534;-88
2021/07/27 09:24:37;;;;;;;0.80;0.67;;;16.80;99.90;;;;;;6247839;23;20160;-87
2021/07/27 09:27:10;;;;;;;1.20;0.57;;;16.70;99.90;;;;;;6246213;23;20238;-88
2021/07/27 09:29:46;;;;;;;1.77;0.80;;;16.80;99.90;;;;;;6247410;23;20489;-88
2021/07/27 09:32:22;;;;;;;1.43;0.60;;;16.80;99.90;;;;;;6246706;23;20179;-87
2021/07/27 09:35:05;;;;;;;2.63;0.83;;;16.80;99.90;;;;;;6247772;23;20187;-87
2021/07/27 09:37:36;;;;;;;0.40;0.40;;;16.80;99.90;;;;;;6252312;23;20206;-88
2021/07/27 09:40:09;;;;;;;2.00;0.60;;;16.70;99.90;;;;;;6237232;23;20168;-87
2021/07/27 09:42:41;;;;;;;1.47;0.60;;;16.70;99.90;;;;;;6268268;22;20255;-88
2021/07/27 09:45:13;;;;;;;0.73;0.50;;;16.70;99.90;;;;;;6272652;23;20183;-88
2021/07/27 09:47:46;;;;;;;2.00;0.70;;;16.70;99.90;;;;;;6247702;23;20248;-87
2021/07/27 09:50:20;;;;;;;1.53;0.63;;;16.70;99.90;;;;;;6233168;23;20176;-88
2021/07/27 09:52:52;;;;;;;1.30;0.70;;;16.70;99.90;;;;;;6250541;23;20206;-88
2021/07/27 09:55:26;;;;;;;1.47;0.70;;;16.70;99.90;;;;;;6248756;23;20174;-87
2021/07/27 09:57:57;;;;;;;0.77;0.43;;;16.70;99.90;;;;;;6246710;23;20244;-89
2021/07/27 10:00:28;;;;;;;1.23;0.50;;;16.70;99.90;;;;;;6221174;23;20191;-88
2021/07/27 10:03:00;;;;;;;1.30;0.50;;;16.60;99.90;;;;;;6246625;23;20646;-88
2021/07/27 10:05:36;;;;;;;1.57;0.73;;;16.60;99.90;;;;;;6220420;23;20203;-88
2021/07/27 10:08:07;;;;;;;1.30;0.50;;;16.60;99.90;;;;;;6246748;23;20175;-89
2021/07/27 10:10:40;;;;;;;1.00;0.60;;;16.60;99.90;;;;;;6246334;23;20183;-88
2021/07/27 10:13:15;;;;;;;2.30;0.70;;;16.50;99.90;;;;;;6245838;23;20175;-88
2021/07/27 10:15:47;;;;;;;1.03;0.50;;;16.50;99.90;;;;;;6247564;23;20184;-88
2021/07/27 10:18:18;;;;;;;1.20;0.50;;;16.50;99.90;;;;;;6246558;23;20226;-88
2021/07/27 10:20:51;;;;;;;1.03;0.40;;;16.50;99.90;;;;;;6221063;23;20175;-87
2021/07/27 10:23:35;;;;;;;0.90;0.40;;;16.50;99.90;;;;;;6245712;23;20199;-87
2021/07/27 10:26:06;;;;;;;1.17;0.60;;;16.40;99.90;;;;;;6246571;23;20230;-87
2021/07/27 10:28:37;;;;;;;0.90;0.50;;;16.50;99.90;;;;;;6246799;23;20206;-88
2021/07/27 10:31:09;;;;;;;0.50;0.40;;;16.40;99.90;;;;;;6246707;23;20180;-88
2021/07/27 10:33:41;;;;;;;0.93;0.60;;;16.40;99.90;;;;;;6245234;23;20552;-87
2021/07/27 10:36:13;;;;;;;1.20;0.40;;;16.40;99.90;;;;;;6221215;23;20175;-87
2021/07/27 10:38:46;;;;;;;0.50;0.50;;;16.40;99.90;;;;;;6246140;23;20176;-88
2021/07/27 10:41:19;;;;;;;0.47;0.40;;;16.40;99.90;;;;;;6246241;23;20176;-88
2021/07/27 10:43:52;;;;;;;1.73;0.60;;;16.40;99.90;;;;;;6246690;23;20218;-88
2021/07/27 10:46:27;;;;;;;1.83;0.50;;;16.40;99.90;;;;;;6219994;23;20622;-89
2021/07/27 10:48:59;;;;;;;2.00;0.50;;;16.30;99.90;;;;;;6246280;23;20237;-88
2021/07/27 10:51:38;;;;;;;0.97;0.40;;;16.30;99.90;;;;;;6245038;23;20292;-88
2021/07/27 10:54:09;;;;;;;0.87;0.50;;;16.30;99.90;;;;;;6246276;23;20230;-87
2021/07/27 10:56:41;;;;;;;1.10;0.50;;;16.30;99.90;;;;;;6220053;23;20696;-88
2021/07/27 10:59:21;;;;;;;2.03;0.60;;;16.20;99.90;;;;;;6220350;23;20559;-87
2021/07/27 11:01:53;;;;;;;0.90;0.47;;;16.30;99.90;;;;;;6244891;23;20241;-88
2021/07/27 11:04:29;;;;;;;2.57;0.60;;;16.20;99.90;;;;;;6246467;23;20270;-88
2021/07/27 11:07:13;;;;;;;1.87;0.60;;;16.20;99.90;;;;;;6246054;23;20175;-87
2021/07/27 11:09:54;;;;;;;1.17;0.50;;;16.10;99.90;;;;;;6246282;23;20168;-87
2021/07/27 11:12:30;;;;;;;1.37;0.60;;;16.10;99.90;;;;;;6245172;23;20225;-88
2021/07/27 11:15:09;;;;;;;0.40;0.30;;;16.10;99.90;;;;;;6245866;23;20179;-87
2021/07/27 11:17:44;;;;;;;1.83;0.60;;;16.10;99.90;;;;;;6245869;23;20178;-87
2021/07/27 11:20:17;;;;;;;1.37;0.50;;;16.10;99.90;;;;;;6245638;23;20210;-88
2021/07/27 11:22:51;;;;;;;1.00;0.60;;;16.10;99.90;;;;;;6245209;23;20179;-88
2021/07/27 11:25:24;;;;;;;0.47;0.30;;;16.00;99.90;;;;;;6246210;23;20187;-88
2021/07/27 11:27:56;;;;;;;0.70;0.40;;;16.00;99.90;;;;;;6245575;23;20164;-88
2021/07/27 11:30:38;;;;;;;0.90;0.40;;;16.00;99.90;;;;;;6245918;23;20168;-88
2021/07/27 11:33:10;;;;;;;0.40;0.40;;;15.90;99.90;;;;;;6245006;23;20183;-88
2021/07/27 11:35:44;;;;;;;1.47;0.90;;;15.90;99.90;;;;;;6246198;23;20175;-88
2021/07/27 11:38:24;;;;;;;0.83;0.50;;;15.90;99.90;;;;;;6245988;23;20183;-88
2021/07/27 11:41:05;;;;;;;0.57;0.50;;;15.80;99.90;;;;;;6246435;23;20175;-88
2021/07/27 11:43:37;;;;;;;3.47;0.40;;;15.80;99.90;;;;;;6245479;23;20206;-88
2021/07/27 11:46:11;;;;;;;0.57;0.57;;;15.80;99.90;;;;;;6246315;23;20222;-88
2021/07/27 11:48:44;;;;;;;17.27;1.30;;;15.90;99.90;;;;;;6245979;23;20178;-87
2021/07/27 11:51:15;;;;;;;1.27;0.60;;;15.90;99.90;;;;;;6246159;23;20161;-88
2021/07/27 11:53:57;;;;;;;1.20;0.60;;;15.90;99.90;;;;;;6245686;23;20200;-88
2021/07/27 11:56:28;;;;;;;0.83;0.40;;;15.90;99.90;;;;;;6246297;23;20506;-88
2021/07/27 11:59:05;;;;;;;0.47;0.30;;;15.90;99.90;;;;;;6250657;23;20176;-88
2021/07/27 12:01:40;;;;;;;2.10;0.60;;;15.90;99.90;;;;;;6264405;23;20195;-89
2021/07/27 12:04:12;;;;;;;0.93;0.57;;;15.90;99.90;;;;;;6269242;23;20245;-88
2021/07/27 12:06:47;;;;;;;0.80;0.50;;;15.90;99.90;;;;;;6267595;23;20159;-88
2021/07/27 12:09:22;;;;;;;0.80;0.50;;;15.90;99.90;;;;;;6248056;23;20163;-87
2021/07/27 12:11:54;;;;;;;0.93;0.43;;;15.80;99.90;;;;;;6245502;23;20692;-88
2021/07/27 12:14:25;;;;;;;0.47;0.40;;;15.70;99.90;;;;;;6245045;23;20457;-88
2021/07/27 12:16:56;;;;;;;1.17;0.60;;;15.70;99.90;;;;;;6247297;23;20176;-88
2021/07/27 12:19:36;;;;;;;1.30;0.70;;;15.70;99.90;;;;;;6247563;23;20633;-87
2021/07/27 12:22:07;;;;;;;0.70;0.40;;;15.70;99.90;;;;;;6246630;23;20191;-88
2021/07/27 12:24:39;;;;;;;2.17;0.50;;;15.70;99.90;;;;;;6247732;23;20207;-88
2021/07/27 12:27:11;;;;;;;3.03;0.60;;;15.70;99.90;;;;;;6247001;23;20176;-88
2021/07/27 12:29:42;;;;;;;0.50;0.50;;;15.70;99.90;;;;;;6221457;23;20615;-88
2021/07/27 12:32:13;;;;;;;0.90;0.57;;;15.70;99.90;;;;;;6246574;23;20176;-87
2021/07/27 12:34:44;;;;;;;2.00;0.60;;;15.70;99.90;;;;;;6247707;23;20188;-87
2021/07/27 12:37:15;;;;;;;2.07;0.40;;;15.70;99.90;;;;;;6247434;23;20248;-88
2021/07/27 12:39:48;;;;;;;1.30;0.50;;;15.60;99.90;;;;;;6247841;23;20171;-88
2021/07/27 12:42:21;;;;;;;1.30;0.53;;;15.60;99.90;;;;;;6246364;23;20244;-88
2021/07/27 12:44:52;;;;;;;1.10;0.53;;;15.60;99.90;;;;;;6247084;23;20596;-88
2021/07/27 12:47:22;;;;;;;2.80;0.50;;;15.60;99.90;;;;;;6247207;23;20514;-88
2021/07/27 12:49:53;;;;;;;2.20;0.73;;;15.60;99.90;;;;;;6247544;23;20183;-88
2021/07/27 12:52:24;;;;;;;0.73;0.50;;;15.50;99.90;;;;;;6246167;23;20179;-88
2021/07/27 12:54:57;;;;;;;0.97;0.40;;;15.50;99.90;;;;;;6247282;23;20179;-88
2021/07/27 12:57:28;;;;;;;0.70;0.40;;;15.50;99.90;;;;;;6248002;23;20222;-88
2021/07/27 13:00:02;;;;;;;0.40;0.30;;;15.40;99.90;;;;;;6246841;23;20171;-88
2021/07/27 13:02:33;;;;;;;3.00;0.60;;;15.50;99.90;;;;;;6246269;23;20184;-88
2021/07/27 13:05:04;;;;;;;1.03;0.50;;;15.50;99.90;;;;;;6247202;23;20210;-87
2021/07/27 13:07:36;;;;;;;1.50;0.43;;;15.50;99.90;;;;;;6248086;23;20224;-89
2021/07/27 13:10:12;;;;;;;0.60;0.60;;;15.50;99.90;;;;;;6247022;23;20175;-88
2021/07/27 13:12:43;;;;;;;2.33;0.57;;;15.60;99.90;;;;;;6246674;23;20167;-88
2021/07/27 13:15:13;;;;;;;1.07;0.60;;;15.60;99.90;;;;;;6247409;23;20175;-88
2021/07/27 13:17:44;;;;;;;0.83;0.60;;;15.50;99.90;;;;;;6247528;23;20226;-88
2021/07/27 13:20:17;;;;;;;1.47;0.43;;;15.40;99.90;;;;;;6246482;23;20176;-88
2021/07/27 13:22:47;;;;;;;2.90;0.70;;;15.40;99.90;;;;;;6246289;23;20206;-87
2021/07/27 13:25:20;;;;;;;3.13;0.63;;;15.40;99.90;;;;;;6246653;23;20246;-88
2021/07/27 13:27:51;;;;;;;1.03;0.50;;;15.40;99.90;;;;;;6247367;23;20646;-88
2021/07/27 13:30:23;;;;;;;1.77;0.63;;;15.40;99.90;;;;;;6247590;23;20515;-87
2021/07/27 13:32:54;;;;;;;0.93;0.70;;;15.50;99.90;;;;;;6247012;23;20195;-88
2021/07/27 13:35:24;;;;;;;0.50;0.50;;;15.50;99.90;;;;;;6247287;23;20178;-87